createdAt,value
2022-09-28T00:01:27.104Z,53.14
2022-09-28T00:03:59.836Z,52.35
2022-09-28T00:06:30.527Z,52.06
2022-09-28T00:08:59.198Z,51.94
2022-09-28T00:11:29.097Z,54.31
2022-09-28T00:14:03.331Z,54.37
2022-09-28T00:16:34.932Z,54.45
2022-09-28T00:19:04.786Z,55.69
2022-09-28T00:21:36.352Z,54.97
2022-09-28T00:24:12.813Z,55.13
2022-09-28T00:27:00.605Z,54.34
2022-09-28T00:29:31.650Z,55.32
2022-09-28T00:32:05.096Z,55.28
2022-09-28T00:34:40.603Z,56.63
2022-09-28T00:37:10.096Z,56.54
2022-09-28T00:39:41.265Z,54.86
2022-09-28T00:42:23.702Z,56.76
2022-09-28T00:44:51.989Z,55.29
2022-09-28T00:47:40.509Z,55.84
2022-09-28T00:50:21.896Z,55.64
2022-09-28T00:52:58.197Z,54.92
2022-09-28T00:55:40.573Z,54.13
2022-09-28T00:58:11.623Z,53.45
2022-09-28T01:00:41.020Z,53.00
2022-09-28T01:03:10.184Z,52.70
2022-09-28T01:05:39.786Z,52.65
2022-09-28T01:08:09.974Z,52.26
2022-09-28T01:10:39.391Z,51.87
2022-09-28T01:13:07.884Z,52.05
2022-09-28T01:15:46.712Z,52.23
2022-09-28T01:18:41.345Z,52.00
2022-09-28T01:21:21.149Z,52.17
2022-09-28T01:24:09.636Z,52.43
2022-09-28T01:27:17.089Z,52.82
2022-09-28T01:30:03.537Z,52.57
2022-09-28T01:32:44.064Z,52.22
2022-09-28T01:35:27.878Z,52.35
2022-09-28T01:38:04.711Z,52.46
2022-09-28T01:40:35.393Z,52.86
2022-09-28T01:43:09.455Z,53.12
2022-09-28T01:45:45.691Z,53.32
2022-09-28T01:48:20.313Z,53.13
2022-09-28T01:50:53.797Z,52.95
2022-09-28T01:53:43.249Z,53.47
2022-09-28T01:56:19.169Z,53.35
2022-09-28T01:59:06.081Z,53.47
2022-09-28T02:01:40.953Z,53.78
2022-09-28T02:04:17.908Z,54.37
2022-09-28T02:06:51.861Z,55.10
2022-09-28T02:09:37.337Z,54.52
2022-09-28T02:12:23.009Z,54.97
2022-09-28T02:14:55.598Z,54.81
2022-09-28T02:17:23.998Z,54.68
2022-09-28T02:19:52.328Z,54.02
2022-09-28T02:22:37.222Z,54.31
2022-09-28T02:25:28.178Z,55.16
2022-09-28T02:28:05.032Z,55.43
2022-09-28T02:30:37.409Z,54.26
2022-09-28T02:33:19.857Z,54.07
2022-09-28T02:35:48.755Z,53.70
2022-09-28T02:38:17.096Z,53.79
2022-09-28T02:41:02.493Z,55.14
2022-09-28T02:44:08.661Z,57.02
2022-09-28T02:46:55.853Z,54.52
2022-09-28T02:49:51.993Z,54.16
2022-09-28T02:52:29.704Z,56.63
2022-09-28T02:55:03.723Z,55.27
2022-09-28T02:57:47.950Z,54.67
2022-09-28T03:00:22.818Z,55.74
2022-09-28T03:02:51.141Z,55.08
2022-09-28T03:05:41.395Z,54.65
2022-09-28T03:08:24.983Z,53.83
2022-09-28T03:11:02.497Z,53.17
2022-09-28T03:13:31.881Z,53.65
2022-09-28T03:16:15.412Z,54.54
2022-09-28T03:18:44.629Z,54.41
2022-09-28T03:21:14.465Z,54.42
2022-09-28T03:23:43.438Z,54.02
2022-09-28T03:26:12.681Z,53.92
2022-09-28T03:28:41.230Z,53.33
2022-09-28T03:31:09.685Z,53.33
2022-09-28T03:33:38.244Z,53.09
2022-09-28T03:36:08.682Z,53.52
2022-09-28T03:38:37.112Z,53.00
2022-09-28T03:41:05.650Z,52.93
2022-09-28T03:43:34.023Z,52.39
2022-09-28T03:46:03.043Z,52.40
2022-09-28T03:48:34.940Z,52.94
2022-09-28T03:51:05.539Z,52.98
2022-09-28T03:53:33.921Z,53.00
2022-09-28T03:56:05.593Z,53.15
2022-09-28T03:58:34.431Z,53.42
2022-09-28T04:01:05.631Z,53.59
2022-09-28T04:03:34.051Z,53.49
2022-09-28T04:06:02.478Z,53.04
2022-09-28T04:08:31.092Z,53.04
2022-09-28T04:11:00.762Z,53.06
2022-09-28T04:13:30.244Z,53.38
2022-09-28T04:16:00.989Z,53.13
2022-09-28T04:18:29.638Z,53.14
2022-09-28T04:21:06.854Z,53.97
2022-09-28T04:23:37.192Z,53.89
2022-09-28T04:26:07.850Z,54.72
2022-09-28T04:28:54.913Z,55.04
2022-09-28T04:31:23.778Z,54.63
2022-09-28T04:33:52.168Z,55.45
2022-09-28T04:36:20.657Z,55.50
2022-09-28T04:38:53.279Z,54.62
2022-09-28T04:41:22.556Z,53.79
2022-09-28T04:43:51.088Z,53.46
2022-09-28T04:46:20.247Z,53.68
2022-09-28T04:48:48.740Z,53.49
2022-09-28T04:51:19.122Z,53.36
2022-09-28T04:53:47.535Z,53.97
2022-09-28T04:56:17.462Z,53.99
2022-09-28T04:58:50.338Z,53.92
2022-09-28T05:01:23.737Z,53.62
2022-09-28T05:03:52.433Z,54.01
2022-09-28T05:06:22.660Z,53.59
2022-09-28T05:08:51.849Z,53.55
2022-09-28T05:11:21.566Z,54.77
2022-09-28T05:13:50.392Z,54.12
2022-09-28T05:16:20.383Z,54.06
2022-09-28T05:18:48.875Z,54.79
2022-09-28T05:21:19.628Z,54.28
2022-09-28T05:23:48.095Z,54.85
2022-09-28T05:26:16.648Z,54.37
2022-09-28T05:28:45.068Z,53.99
2022-09-28T05:31:13.878Z,53.94
2022-09-28T05:33:42.394Z,53.47
2022-09-28T05:36:11.205Z,53.48
2022-09-28T05:38:39.648Z,53.58
2022-09-28T05:41:08.090Z,53.72
2022-09-28T05:43:36.887Z,53.98
2022-09-28T05:46:06.461Z,54.09
2022-09-28T05:48:35.110Z,54.05
2022-09-28T05:51:03.620Z,54.05
2022-09-28T05:53:32.108Z,53.68
2022-09-28T05:56:00.664Z,53.34
2022-09-28T05:58:29.379Z,53.53
2022-09-28T06:00:58.506Z,53.39
2022-09-28T06:03:28.366Z,54.24
2022-09-28T06:05:56.828Z,53.80
2022-09-28T06:08:25.293Z,53.40
2022-09-28T06:10:53.720Z,53.52
2022-09-28T06:13:22.078Z,54.37
2022-09-28T06:15:50.528Z,54.08
2022-09-28T06:18:19.197Z,54.16
2022-09-28T06:20:47.613Z,53.87
2022-09-28T06:23:16.177Z,53.71
2022-09-28T06:25:44.594Z,53.65
2022-09-28T06:28:14.794Z,54.16
2022-09-28T06:30:44.044Z,53.92
2022-09-28T06:33:14.380Z,53.63
2022-09-28T06:35:42.967Z,53.75
2022-09-28T06:38:11.776Z,53.69
2022-09-28T06:40:40.255Z,53.47
2022-09-28T06:43:15.057Z,53.04
2022-09-28T06:45:43.827Z,53.01
2022-09-28T06:48:12.318Z,52.99
2022-09-28T06:50:41.298Z,52.94
2022-09-28T06:53:12.840Z,52.54
2022-09-28T06:55:43.257Z,53.00
2022-09-28T06:58:14.330Z,52.84
2022-09-28T07:00:43.404Z,53.09
2022-09-28T07:03:14.769Z,53.01
2022-09-28T07:05:49.837Z,52.65
2022-09-28T07:08:18.239Z,52.89
2022-09-28T07:10:48.785Z,52.86
2022-09-28T07:13:45.007Z,52.50
2022-09-28T07:16:06.278Z,52.70
2022-09-28T07:18:34.601Z,53.24
2022-09-28T07:21:04.075Z,53.24
2022-09-28T07:23:34.529Z,53.00
2022-09-28T07:26:09.247Z,52.84
2022-09-28T07:28:41.386Z,53.52
2022-09-28T07:31:11.851Z,53.54
2022-09-28T07:33:41.376Z,53.72
2022-09-28T07:36:10.618Z,53.14
2022-09-28T07:38:41.134Z,54.07
2022-09-28T07:41:12.420Z,53.03
2022-09-28T07:43:41.879Z,53.30
2022-09-28T07:46:12.278Z,53.06
2022-09-28T07:48:42.687Z,52.65
2022-09-28T07:51:11.187Z,52.85
2022-09-28T07:53:39.693Z,52.45
2022-09-28T07:56:09.354Z,52.37
2022-09-28T07:58:39.238Z,53.31
2022-09-28T08:01:10.677Z,52.33
2022-09-28T08:03:39.428Z,52.81
2022-09-28T08:06:11.125Z,52.29
2022-09-28T08:08:44.828Z,51.70
2022-09-28T08:11:16.540Z,53.29
2022-09-28T08:13:46.466Z,52.18
2022-09-28T08:16:14.994Z,52.18
2022-09-28T08:18:43.471Z,53.13
2022-09-28T08:21:30.504Z,53.17
2022-09-28T08:23:58.911Z,52.33
2022-09-28T08:26:28.896Z,53.25
2022-09-28T08:28:57.259Z,52.58
2022-09-28T08:31:27.269Z,54.15
2022-09-28T08:33:57.427Z,53.41
2022-09-28T08:36:25.848Z,52.81
2022-09-28T08:38:55.197Z,52.79
2022-09-28T08:41:56.820Z,52.03
2022-09-28T08:44:30.328Z,52.79
2022-09-28T08:47:03.218Z,52.14
2022-09-28T08:49:37.163Z,53.54
2022-09-28T08:52:18.716Z,52.34
2022-09-28T08:54:50.155Z,51.48
2022-09-28T08:57:33.700Z,50.34
2022-09-28T09:00:09.503Z,50.71
2022-09-28T09:02:42.230Z,50.08
2022-09-28T09:05:15.076Z,49.96
2022-09-28T09:07:55.068Z,51.58
2022-09-28T09:10:47.526Z,49.97
2022-09-28T09:13:42.048Z,51.20
2022-09-28T09:16:33.031Z,51.33
2022-09-28T09:19:35.766Z,52.80
2022-09-28T09:22:17.899Z,52.17
2022-09-28T09:24:51.593Z,52.54
2022-09-28T09:27:36.762Z,51.33
2022-09-28T09:30:08.350Z,50.14
2022-09-28T09:32:58.382Z,50.10
2022-09-28T09:35:52.295Z,52.51
2022-09-28T09:38:27.779Z,51.51
2022-09-28T09:41:11.518Z,49.69
2022-09-28T09:43:39.896Z,50.00
2022-09-28T09:46:30.390Z,49.16
2022-09-28T09:49:08.849Z,50.38
2022-09-28T09:52:06.246Z,50.62
2022-09-28T09:54:37.669Z,50.05
2022-09-28T09:57:13.563Z,48.66
2022-09-28T09:59:44.413Z,49.21
2022-09-28T10:02:26.062Z,47.86
2022-09-28T10:05:27.676Z,47.01
2022-09-28T10:08:23.707Z,46.00
2022-09-28T10:10:56.354Z,46.45
2022-09-28T10:13:24.852Z,47.42
2022-09-28T10:15:53.288Z,46.69
2022-09-28T10:18:21.761Z,46.79
2022-09-28T10:20:50.189Z,46.99
2022-09-28T10:23:30.296Z,48.98
2022-09-28T10:26:04.234Z,48.37
2022-09-28T10:28:47.385Z,49.16
2022-09-28T10:31:42.191Z,47.84
2022-09-28T10:34:17.290Z,47.38
2022-09-28T10:37:00.676Z,46.95
2022-09-28T10:39:33.228Z,47.09
2022-09-28T10:42:06.185Z,47.50
2022-09-28T10:44:50.536Z,47.78
2022-09-28T10:47:22.145Z,47.30
2022-09-28T10:49:53.567Z,46.92
2022-09-28T10:52:32.863Z,46.78
2022-09-28T10:55:02.452Z,45.77
2022-09-28T10:57:36.568Z,46.56
2022-09-28T11:00:07.332Z,46.99
2022-09-28T11:02:38.418Z,46.32
2022-09-28T11:05:19.863Z,46.83
2022-09-28T11:07:48.608Z,45.92
2022-09-28T11:10:22.815Z,45.22
2022-09-28T11:12:52.219Z,46.19
2022-09-28T11:15:25.913Z,45.52
2022-09-28T11:17:54.585Z,45.37
2022-09-28T11:20:28.337Z,46.52
2022-09-28T11:23:16.731Z,45.75
2022-09-28T11:26:05.950Z,45.00
2022-09-28T11:28:37.478Z,45.52
2022-09-28T11:31:08.235Z,45.49
2022-09-28T11:33:40.258Z,44.47
2022-09-28T11:36:08.609Z,44.68
2022-09-28T11:38:58.901Z,45.47
2022-09-28T11:41:49.188Z,43.22
2022-09-28T11:44:37.031Z,44.47
2022-09-28T11:47:35.613Z,43.75
2022-09-28T11:50:12.821Z,44.11
2022-09-28T11:52:59.747Z,42.51
2022-09-28T11:55:34.385Z,43.87
2022-09-28T11:58:15.249Z,43.88
2022-09-28T12:00:50.563Z,42.85
2022-09-28T12:03:39.586Z,42.66
2022-09-28T12:06:16.191Z,43.52
2022-09-28T12:08:54.072Z,43.31
2022-09-28T12:11:33.916Z,43.01
2022-09-28T12:14:06.957Z,44.01
2022-09-28T12:17:04.819Z,43.75
2022-09-28T12:19:55.347Z,42.94
2022-09-28T12:22:28.235Z,44.08
2022-09-28T12:24:58.444Z,43.83
2022-09-28T12:27:38.520Z,43.78
2022-09-28T12:30:27.228Z,42.05
2022-09-28T12:33:05.049Z,41.70
2022-09-28T12:35:55.450Z,42.93
2022-09-28T12:38:42.474Z,43.67
2022-09-28T12:41:42.388Z,42.34
2022-09-28T12:44:13.741Z,44.47
2022-09-28T12:47:16.480Z,45.26
2022-09-28T12:50:37.522Z,44.14
2022-09-28T12:53:24.023Z,44.04
2022-09-28T12:56:24.489Z,44.29
2022-09-28T12:59:05.602Z,45.12
2022-09-28T13:02:14.795Z,45.54
2022-09-28T13:05:16.043Z,45.44
2022-09-28T13:07:49.916Z,46.42
2022-09-28T13:10:26.832Z,46.13
2022-09-28T13:13:24.769Z,48.20
2022-09-28T13:15:56.648Z,47.73
2022-09-28T13:18:42.165Z,48.25
2022-09-28T13:21:26.705Z,49.46
2022-09-28T13:24:09.056Z,47.18
2022-09-28T13:26:49.333Z,47.43
2022-09-28T13:29:20.339Z,49.13
2022-09-28T13:31:52.973Z,47.79
2022-09-28T13:34:24.893Z,48.14
2022-09-28T13:37:19.784Z,48.49
2022-09-28T13:39:52.493Z,49.13
2022-09-28T13:42:29.346Z,50.53
2022-09-28T13:45:18.153Z,51.05
2022-09-28T13:47:56.649Z,50.61
2022-09-28T13:51:02.505Z,51.07
2022-09-28T13:53:40.148Z,50.73
2022-09-28T13:56:30.412Z,50.49
2022-09-28T13:59:17.564Z,50.81
2022-09-28T14:02:27.902Z,50.54
2022-09-28T14:05:01.981Z,51.20
2022-09-28T14:07:33.460Z,49.44
2022-09-28T14:10:20.955Z,48.71
2022-09-28T14:12:54.047Z,50.91
2022-09-28T14:15:28.627Z,49.57
2022-09-28T14:18:31.916Z,48.20
2022-09-28T14:21:21.548Z,47.58
2022-09-28T14:24:13.743Z,47.66
2022-09-28T14:27:20.749Z,47.98
2022-09-28T14:30:05.135Z,48.63
2022-09-28T14:32:37.341Z,47.78
2022-09-28T14:35:07.451Z,47.13
2022-09-28T14:38:00.415Z,47.03
2022-09-28T14:40:51.357Z,48.01
2022-09-28T14:43:27.893Z,48.76
2022-09-28T14:46:25.592Z,48.07
2022-09-28T14:49:04.079Z,48.87
2022-09-28T14:51:37.840Z,49.21
2022-09-28T14:54:17.509Z,49.86
2022-09-28T14:56:51.967Z,49.08
2022-09-28T14:59:26.866Z,49.04
2022-09-28T15:02:10.468Z,48.13
2022-09-28T15:05:07.262Z,47.73
2022-09-28T15:07:49.597Z,47.17
2022-09-28T15:10:25.281Z,46.79
2022-09-28T15:12:57.051Z,47.60
2022-09-28T15:15:35.275Z,47.96
2022-09-28T15:18:33.217Z,47.72
2022-09-28T15:21:02.811Z,48.18
2022-09-28T15:23:37.427Z,47.21
2022-09-28T15:26:18.384Z,45.70
2022-09-28T15:28:46.804Z,45.72
2022-09-28T15:31:23.092Z,44.95
2022-09-28T15:34:10.605Z,45.92
2022-09-28T15:36:46.424Z,45.24
2022-09-28T15:39:48.302Z,44.73
2022-09-28T15:42:18.330Z,44.77
2022-09-28T15:45:06.050Z,45.60
2022-09-28T15:47:35.184Z,45.43
2022-09-28T15:50:09.146Z,45.51
2022-09-28T15:52:47.060Z,44.84
2022-09-28T15:55:31.899Z,44.13
2022-09-28T15:58:12.526Z,43.63
2022-09-28T16:00:42.240Z,44.07
2022-09-28T16:03:10.635Z,43.49
2022-09-28T16:05:57.533Z,43.23
2022-09-28T16:08:44.840Z,43.34
2022-09-28T16:11:23.857Z,43.81
2022-09-28T16:14:07.220Z,43.65
2022-09-28T16:16:46.641Z,43.78
2022-09-28T16:19:31.268Z,43.69
2022-09-28T16:22:03.878Z,43.39
2022-09-28T16:24:37.167Z,43.54
2022-09-28T16:27:21.922Z,43.40
2022-09-28T16:30:12.576Z,43.23
2022-09-28T16:33:03.483Z,43.80
2022-09-28T16:35:52.696Z,43.85
2022-09-28T16:38:21.432Z,44.15
2022-09-28T16:40:54.753Z,44.38
2022-09-28T16:43:28.553Z,43.63
2022-09-28T16:46:02.817Z,43.99
2022-09-28T16:48:34.321Z,44.23
2022-09-28T16:51:02.792Z,43.21
2022-09-28T16:53:49.603Z,43.23
2022-09-28T16:56:18.486Z,43.74
2022-09-28T16:58:49.405Z,44.09
2022-09-28T17:01:17.980Z,43.75
2022-09-28T17:03:50.022Z,43.27
2022-09-28T17:06:20.529Z,43.20
2022-09-28T17:08:48.948Z,43.83
2022-09-28T17:11:24.009Z,43.91
2022-09-28T17:13:56.803Z,43.44
2022-09-28T17:16:49.795Z,42.96
2022-09-28T17:19:24.868Z,43.57
2022-09-28T17:21:54.234Z,43.62
2022-09-28T17:24:22.611Z,43.91
2022-09-28T17:26:52.006Z,43.87
2022-09-28T17:29:20.495Z,44.03
2022-09-28T17:31:48.905Z,43.88
2022-09-28T17:34:17.413Z,44.04
2022-09-28T17:36:46.399Z,43.71
2022-09-28T17:39:17.432Z,44.27
2022-09-28T17:41:46.387Z,44.29
2022-09-28T17:44:16.117Z,44.41
2022-09-28T17:46:48.543Z,43.68
2022-09-28T17:49:17.299Z,44.29
2022-09-28T17:51:45.679Z,44.44
2022-09-28T17:54:16.885Z,44.49
2022-09-28T17:56:46.089Z,44.51
2022-09-28T17:59:17.585Z,44.71
2022-09-28T18:01:46.122Z,44.57
2022-09-28T18:04:39.837Z,44.84
2022-09-28T18:07:04.496Z,44.99
2022-09-28T18:09:32.870Z,45.11
2022-09-28T18:12:04.488Z,44.80
2022-09-28T18:14:32.917Z,44.81
2022-09-28T18:17:01.679Z,44.92
2022-09-28T18:19:32.305Z,45.21
2022-09-28T18:22:01.740Z,45.26
2022-09-28T18:24:32.308Z,45.21
2022-09-28T18:27:00.787Z,45.13
2022-09-28T18:29:33.063Z,45.28
2022-09-28T18:32:02.216Z,45.46
2022-09-28T18:34:30.635Z,45.44
2022-09-28T18:36:59.079Z,45.24
2022-09-28T18:39:27.544Z,45.50
2022-09-28T18:41:56.003Z,45.34
2022-09-28T18:44:24.487Z,45.54
2022-09-28T18:46:53.005Z,45.61
2022-09-28T18:49:21.987Z,45.51
2022-09-28T18:51:50.487Z,45.71
2022-09-28T18:54:18.902Z,45.80
2022-09-28T18:56:47.596Z,45.67
2022-09-28T18:59:16.180Z,45.95
2022-09-28T19:01:45.026Z,45.69
2022-09-28T19:04:13.546Z,45.80
2022-09-28T19:06:44.381Z,45.44
2022-09-28T19:09:13.076Z,45.81
2022-09-28T19:11:42.755Z,45.83
2022-09-28T19:14:14.844Z,45.67
2022-09-28T19:16:44.385Z,45.23
2022-09-28T19:19:14.694Z,45.78
2022-09-28T19:21:43.465Z,45.83
2022-09-28T19:24:16.679Z,45.79
2022-09-28T19:26:46.508Z,46.05
2022-09-28T19:29:15.619Z,45.96
2022-09-28T19:31:44.024Z,46.13
2022-09-28T19:34:14.236Z,45.99
2022-09-28T19:36:43.156Z,46.26
2022-09-28T19:39:15.023Z,46.26
2022-09-28T19:41:47.764Z,46.41
2022-09-28T19:44:25.458Z,46.06
2022-09-28T19:46:55.357Z,46.15
2022-09-28T19:49:26.315Z,46.21
2022-09-28T19:52:14.177Z,46.40
2022-09-28T19:54:44.438Z,46.38
2022-09-28T19:57:15.589Z,46.31
2022-09-28T19:59:44.274Z,46.39
2022-09-28T20:02:14.000Z,46.33
2022-09-28T20:04:42.373Z,46.40
2022-09-28T20:07:10.873Z,46.39
2022-09-28T20:09:39.311Z,46.37
2022-09-28T20:12:08.102Z,46.24
2022-09-28T20:14:39.647Z,45.99
2022-09-28T20:17:09.554Z,46.00
2022-09-28T20:19:38.066Z,46.17
2022-09-28T20:22:06.477Z,46.75
2022-09-28T20:24:34.819Z,47.51
2022-09-28T20:27:03.333Z,47.65
2022-09-28T20:29:33.033Z,47.36
2022-09-28T20:32:02.003Z,46.92
2022-09-28T20:34:30.347Z,46.71
2022-09-28T20:36:58.704Z,46.95
2022-09-28T20:39:27.052Z,47.00
2022-09-28T20:41:57.319Z,46.87
2022-09-28T20:44:25.704Z,46.75
2022-09-28T20:46:54.153Z,47.25
2022-09-28T20:49:22.617Z,47.09
2022-09-28T20:51:50.999Z,47.38
2022-09-28T20:54:20.849Z,47.32
2022-09-28T20:56:49.289Z,47.42
2022-09-28T20:59:17.679Z,47.94
2022-09-28T21:01:46.106Z,47.77
2022-09-28T21:04:14.654Z,47.59
2022-09-28T21:06:43.316Z,48.04
2022-09-28T21:09:12.318Z,48.35
2022-09-28T21:11:41.424Z,47.81
2022-09-28T21:14:10.307Z,48.42
2022-09-28T21:16:38.989Z,48.09
2022-09-28T21:19:07.366Z,47.59
2022-09-28T21:21:35.763Z,48.12
2022-09-28T21:24:04.429Z,47.92
2022-09-28T21:26:33.341Z,48.05
2022-09-28T21:29:04.250Z,47.66
2022-09-28T21:31:38.963Z,47.14
2022-09-28T21:34:13.243Z,46.99
2022-09-28T21:36:43.273Z,46.88
2022-09-28T21:39:11.755Z,46.76
2022-09-28T21:41:40.951Z,46.74
2022-09-28T21:44:09.961Z,47.04
2022-09-28T21:46:38.792Z,47.11
2022-09-28T21:49:08.076Z,47.23
2022-09-28T21:51:37.513Z,47.72
2022-09-28T21:54:06.052Z,48.32
2022-09-28T21:56:34.364Z,48.56
2022-09-28T21:59:02.965Z,48.04
2022-09-28T22:01:31.682Z,47.56
2022-09-28T22:04:00.328Z,47.35
2022-09-28T22:06:28.870Z,47.57
2022-09-28T22:08:57.508Z,47.46
2022-09-28T22:11:28.159Z,47.63
2022-09-28T22:13:58.985Z,47.67
2022-09-28T22:16:29.957Z,47.73
2022-09-28T22:18:59.564Z,47.77
2022-09-28T22:21:31.697Z,48.53
2022-09-28T22:24:01.080Z,48.28
2022-09-28T22:26:31.766Z,48.21
2022-09-28T22:29:03.507Z,47.85
2022-09-28T22:31:40.478Z,47.65
2022-09-28T22:34:09.398Z,47.67
2022-09-28T22:36:37.846Z,47.86
2022-09-28T22:39:06.346Z,48.28
2022-09-28T22:41:35.498Z,48.33
2022-09-28T22:44:03.963Z,48.38
2022-09-28T22:46:32.454Z,48.25
2022-09-28T22:49:00.980Z,47.93
2022-09-28T22:51:30.868Z,48.04
2022-09-28T22:53:59.434Z,48.11
2022-09-28T22:56:28.358Z,47.86
2022-09-28T22:58:57.020Z,47.95
2022-09-28T23:01:29.930Z,48.12
2022-09-28T23:03:58.670Z,48.50
2022-09-28T23:06:30.165Z,48.35
2022-09-28T23:08:59.239Z,48.07
2022-09-28T23:11:28.716Z,48.51
2022-09-28T23:13:58.848Z,48.84
2022-09-28T23:16:27.629Z,48.29
2022-09-28T23:18:56.473Z,48.21
2022-09-28T23:21:26.783Z,48.12
2022-09-28T23:24:03.296Z,47.83
2022-09-28T23:26:33.123Z,47.84
2022-09-28T23:29:01.497Z,48.15
2022-09-28T23:31:31.715Z,47.84
2022-09-28T23:34:02.367Z,47.78
2022-09-28T23:36:31.357Z,47.66
2022-09-28T23:38:59.928Z,47.89
2022-09-28T23:41:28.446Z,47.76
2022-09-28T23:43:56.853Z,47.48
2022-09-28T23:46:25.367Z,47.66
2022-09-28T23:48:53.990Z,48.00
2022-09-28T23:51:22.366Z,48.02
2022-09-28T23:53:50.713Z,48.27
2022-09-28T23:56:19.114Z,48.02
2022-09-28T23:58:47.478Z,47.42
